createdAt,value
2023-11-24T00:00:58.369Z,2.40
2023-11-24T00:03:25.453Z,1.97
2023-11-24T00:05:52.325Z,2.07
2023-11-24T00:08:19.091Z,3.03
2023-11-24T00:10:45.934Z,2.00
2023-11-24T00:13:12.696Z,2.23
2023-11-24T00:15:43.567Z,2.23
2023-11-24T00:18:10.491Z,1.40
2023-11-24T00:20:37.288Z,2.70
2023-11-24T00:23:04.029Z,2.27
2023-11-24T00:25:33.719Z,2.60
2023-11-24T00:28:00.526Z,2.50
2023-11-24T00:30:27.829Z,1.50
2023-11-24T00:32:54.695Z,2.20
2023-11-24T00:35:22.194Z,2.33
2023-11-24T00:37:49.613Z,2.30
2023-11-24T00:40:19.340Z,2.30
2023-11-24T00:42:46.168Z,2.17
2023-11-24T00:45:13.480Z,2.43
2023-11-24T00:47:40.578Z,2.10
2023-11-24T00:50:07.979Z,2.27
2023-11-24T00:52:34.760Z,2.37
2023-11-24T00:55:01.588Z,2.27
2023-11-24T00:57:28.343Z,2.90
2023-11-24T00:59:55.457Z,2.50
2023-11-24T01:02:22.238Z,2.23
2023-11-24T01:04:49.271Z,2.93
2023-11-24T01:07:16.355Z,2.87
2023-11-24T01:09:43.207Z,2.50
2023-11-24T01:12:09.978Z,2.90
2023-11-24T01:14:36.794Z,2.33
2023-11-24T01:17:04.020Z,2.37
2023-11-24T01:19:30.845Z,1.90
2023-11-24T01:21:58.148Z,2.90
2023-11-24T01:24:25.109Z,2.27
2023-11-24T01:26:52.262Z,2.37
2023-11-24T01:29:19.070Z,4.77
2023-11-24T01:31:45.923Z,2.37
2023-11-24T01:34:15.793Z,2.70
2023-11-24T01:36:45.372Z,3.00
2023-11-24T01:39:13.779Z,1.70
2023-11-24T01:41:41.797Z,2.40
2023-11-24T01:44:09.655Z,2.47
2023-11-24T01:46:36.575Z,2.20
2023-11-24T01:49:06.089Z,2.20
2023-11-24T01:51:34.286Z,2.43
2023-11-24T01:54:01.669Z,2.13
2023-11-24T01:56:29.831Z,2.43
2023-11-24T01:58:57.106Z,2.70
2023-11-24T02:01:26.038Z,2.80
2023-11-24T02:03:53.142Z,2.00
2023-11-24T02:06:20.436Z,2.37
2023-11-24T02:08:47.714Z,1.13
2023-11-24T02:11:15.282Z,1.20
2023-11-24T02:13:42.204Z,0.90
2023-11-24T02:16:09.747Z,1.13
2023-11-24T02:18:37.325Z,0.80
2023-11-24T02:21:04.253Z,1.13
2023-11-24T02:23:31.926Z,1.40
2023-11-24T02:25:58.760Z,1.03
2023-11-24T02:28:25.473Z,1.67
2023-11-24T02:30:52.396Z,1.33
2023-11-24T02:33:20.077Z,1.57
2023-11-24T02:35:47.605Z,1.53
2023-11-24T02:38:14.410Z,1.07
2023-11-24T02:40:44.186Z,1.13
2023-11-24T02:43:11.072Z,1.00
2023-11-24T02:45:37.929Z,1.30
2023-11-24T02:48:05.120Z,1.20
2023-11-24T02:50:31.897Z,1.30
2023-11-24T02:52:58.672Z,1.93
2023-11-24T02:55:25.420Z,1.70
2023-11-24T02:57:52.209Z,1.53
2023-11-24T03:00:19.441Z,1.83
2023-11-24T03:02:47.625Z,2.07
2023-11-24T03:05:15.124Z,2.10
2023-11-24T03:07:41.918Z,1.83
2023-11-24T03:10:09.796Z,2.03
2023-11-24T03:12:36.733Z,2.27
2023-11-24T03:15:04.331Z,2.50
2023-11-24T03:17:31.602Z,2.80
2023-11-24T03:19:58.348Z,2.60
2023-11-24T03:22:25.131Z,1.80
2023-11-24T03:24:51.953Z,2.70
2023-11-24T03:27:18.821Z,2.40
2023-11-24T03:29:45.712Z,2.70
2023-11-24T03:32:12.567Z,2.73
2023-11-24T03:34:39.426Z,2.17
2023-11-24T03:37:06.859Z,3.20
2023-11-24T03:39:33.719Z,3.60
2023-11-24T03:42:00.479Z,2.20
2023-11-24T03:44:27.199Z,2.60
2023-11-24T03:46:54.034Z,3.30
2023-11-24T03:49:21.093Z,2.90
2023-11-24T03:51:47.893Z,2.13
2023-11-24T03:54:14.715Z,2.70
2023-11-24T03:56:41.510Z,2.13
2023-11-24T03:59:08.338Z,2.60
2023-11-24T04:01:35.618Z,2.83
2023-11-24T04:04:02.708Z,2.63
2023-11-24T04:06:29.578Z,2.00
2023-11-24T04:08:56.335Z,2.83
2023-11-24T04:11:23.098Z,3.87
2023-11-24T04:13:49.861Z,1.83
2023-11-24T04:16:18.832Z,4.60
2023-11-24T04:18:46.577Z,2.80
2023-11-24T04:21:13.342Z,1.93
2023-11-24T04:23:40.073Z,1.20
2023-11-24T04:26:07.568Z,1.53
2023-11-24T04:28:34.414Z,1.27
2023-11-24T04:31:02.203Z,1.43
2023-11-24T04:33:29.027Z,2.83
2023-11-24T04:35:56.589Z,1.13
2023-11-24T04:38:23.549Z,1.80
2023-11-24T04:40:50.340Z,1.50
2023-11-24T04:43:17.249Z,1.83
2023-11-24T04:45:44.215Z,0.90
2023-11-24T04:48:13.629Z,1.33
2023-11-24T04:50:40.542Z,1.00
2023-11-24T04:53:07.695Z,1.37
2023-11-24T04:55:34.454Z,1.30
2023-11-24T04:58:01.315Z,1.20
2023-11-24T05:00:28.235Z,2.40
2023-11-24T05:02:55.097Z,1.10
2023-11-24T05:05:21.870Z,2.03
2023-11-24T05:08:06.861Z,1.20
2023-11-24T05:10:33.637Z,1.97
2023-11-24T05:13:00.454Z,1.47
2023-11-24T05:15:27.278Z,1.77
2023-11-24T05:17:55.148Z,1.90
2023-11-24T05:20:25.076Z,1.90
2023-11-24T05:22:52.018Z,1.80
2023-11-24T05:25:19.018Z,1.57
2023-11-24T05:27:45.833Z,1.53
2023-11-24T05:30:12.946Z,1.23
2023-11-24T05:32:39.735Z,1.40
2023-11-24T05:35:06.714Z,1.43
2023-11-24T05:37:33.574Z,1.27
2023-11-24T05:40:03.047Z,1.40
2023-11-24T05:42:29.850Z,1.30
2023-11-24T05:44:56.660Z,1.00
2023-11-24T05:47:23.644Z,1.60
2023-11-24T05:49:52.527Z,1.63
2023-11-24T05:52:19.370Z,1.37
2023-11-24T05:54:46.119Z,1.60
2023-11-24T05:57:15.229Z,1.40
2023-11-24T05:59:42.009Z,1.27
2023-11-24T06:02:08.895Z,1.57
2023-11-24T06:04:35.825Z,1.50
2023-11-24T06:07:02.797Z,1.63
2023-11-24T06:09:30.771Z,1.63
2023-11-24T06:11:57.641Z,2.37
2023-11-24T06:14:24.403Z,1.70
2023-11-24T06:16:51.271Z,1.53
2023-11-24T06:19:18.073Z,2.27
2023-11-24T06:21:45.022Z,1.40
2023-11-24T06:24:12.169Z,1.47
2023-11-24T06:26:39.544Z,1.80
2023-11-24T06:29:06.669Z,1.40
2023-11-24T06:31:33.701Z,1.40
2023-11-24T06:34:00.690Z,1.07
2023-11-24T06:36:27.669Z,1.73
2023-11-24T06:38:54.497Z,2.07
2023-11-24T06:41:21.541Z,1.60
2023-11-24T06:43:48.349Z,2.93
2023-11-24T06:46:15.211Z,1.87
2023-11-24T06:48:42.203Z,2.03
2023-11-24T06:51:09.209Z,1.83
2023-11-24T06:53:36.466Z,2.03
2023-11-24T06:56:03.710Z,1.90
2023-11-24T06:58:30.495Z,1.90
2023-11-24T07:00:57.504Z,1.93
2023-11-24T07:03:24.387Z,2.40
2023-11-24T07:05:51.250Z,1.80
2023-11-24T07:08:18.354Z,1.97
2023-11-24T07:10:45.464Z,1.97
2023-11-24T07:13:12.406Z,2.30
2023-11-24T07:15:39.530Z,1.90
2023-11-24T07:18:06.500Z,1.70
2023-11-24T07:20:34.044Z,2.17
2023-11-24T07:23:01.009Z,1.40
2023-11-24T07:25:27.782Z,1.77
2023-11-24T07:27:54.558Z,2.93
2023-11-24T07:30:23.646Z,1.40
2023-11-24T07:32:54.120Z,1.50
2023-11-24T07:35:21.077Z,1.80
2023-11-24T07:37:47.894Z,1.90
2023-11-24T07:40:17.907Z,2.20
2023-11-24T07:42:45.693Z,2.07
2023-11-24T07:45:13.296Z,1.60
2023-11-24T07:47:41.063Z,2.17
2023-11-24T07:50:08.779Z,1.80
2023-11-24T07:52:36.531Z,1.80
2023-11-24T07:55:04.559Z,2.57
2023-11-24T07:57:31.387Z,2.07
2023-11-24T07:59:59.396Z,2.60
2023-11-24T08:02:26.429Z,1.83
2023-11-24T08:04:53.547Z,2.20
2023-11-24T08:07:20.384Z,2.77
2023-11-24T08:09:47.298Z,2.40
2023-11-24T08:12:14.565Z,2.00
2023-11-24T08:14:42.402Z,1.63
2023-11-24T08:17:09.813Z,1.67
2023-11-24T08:19:37.181Z,1.40
2023-11-24T08:22:04.105Z,1.47
2023-11-24T08:24:31.247Z,1.47
2023-11-24T08:26:58.311Z,1.47
2023-11-24T08:29:25.498Z,1.50
2023-11-24T08:31:53.633Z,1.70
2023-11-24T08:34:20.562Z,1.73
2023-11-24T08:36:47.486Z,1.37
2023-11-24T08:39:14.466Z,1.70
2023-11-24T08:41:45.558Z,1.60
2023-11-24T08:44:15.768Z,1.40
2023-11-24T08:46:44.048Z,2.13
2023-11-24T08:49:12.286Z,1.50
2023-11-24T08:51:40.635Z,1.40
2023-11-24T08:54:11.305Z,2.27
2023-11-24T08:56:39.402Z,1.37
2023-11-24T08:59:10.920Z,1.43
2023-11-24T09:01:38.118Z,2.30
2023-11-24T09:04:05.521Z,1.40
2023-11-24T09:06:32.993Z,1.63
2023-11-24T09:08:59.886Z,1.93
2023-11-24T09:11:27.669Z,1.63
2023-11-24T09:13:54.611Z,1.40
2023-11-24T09:16:21.718Z,1.57
2023-11-24T09:18:48.989Z,1.33
2023-11-24T09:21:15.890Z,1.30
2023-11-24T09:23:42.940Z,2.07
2023-11-24T09:26:13.593Z,1.90
2023-11-24T09:28:40.740Z,1.70
2023-11-24T09:31:10.585Z,1.67
2023-11-24T09:33:38.960Z,1.97
2023-11-24T09:36:09.169Z,1.80
2023-11-24T09:38:35.959Z,1.77
2023-11-24T09:41:10.424Z,2.13
2023-11-24T09:43:38.621Z,1.70
2023-11-24T09:46:06.678Z,1.67
2023-11-24T09:48:34.629Z,1.40
2023-11-24T09:51:04.335Z,1.67
2023-11-24T09:53:35.051Z,1.67
2023-11-24T09:56:03.962Z,1.60
2023-11-24T09:58:31.980Z,1.10
2023-11-24T10:01:17.652Z,1.90
2023-11-24T10:03:49.235Z,2.17
2023-11-24T10:06:16.387Z,1.67
2023-11-24T10:08:43.926Z,0.90
2023-11-24T10:11:14.286Z,1.40
2023-11-24T10:13:47.668Z,2.03
2023-11-24T10:16:16.272Z,1.57
2023-11-24T10:18:43.240Z,1.67
2023-11-24T10:21:22.912Z,1.60
2023-11-24T10:23:55.358Z,1.20
2023-11-24T10:26:22.345Z,1.50
2023-11-24T10:28:49.634Z,1.50
2023-11-24T10:31:18.192Z,1.17
2023-11-24T10:33:45.545Z,1.13
2023-11-24T10:36:12.435Z,2.47
2023-11-24T10:38:41.751Z,1.43
2023-11-24T10:41:24.299Z,2.40
2023-11-24T10:43:51.984Z,1.40
2023-11-24T10:46:22.082Z,1.30
2023-11-24T10:49:03.181Z,1.23
2023-11-24T10:52:02.240Z,1.70
2023-11-24T10:54:37.996Z,1.50
2023-11-24T10:57:07.424Z,1.50
2023-11-24T10:59:37.347Z,1.70
2023-11-24T11:02:08.267Z,2.27
2023-11-24T11:04:37.142Z,1.80
2023-11-24T11:07:07.882Z,1.60
2023-11-24T11:09:49.071Z,1.33
2023-11-24T11:12:31.022Z,1.23
2023-11-24T11:14:58.849Z,2.23
2023-11-24T11:17:28.404Z,1.60
2023-11-24T11:20:05.759Z,1.67
2023-11-24T11:22:39.108Z,2.07
2023-11-24T11:25:18.994Z,1.30
2023-11-24T11:27:48.674Z,1.53
2023-11-24T11:30:20.194Z,1.50
2023-11-24T11:32:47.893Z,1.30
2023-11-24T11:35:15.609Z,1.60
2023-11-24T11:37:42.787Z,1.30
2023-11-24T11:40:13.866Z,1.93
2023-11-24T11:42:54.768Z,2.13
2023-11-24T11:45:30.850Z,1.23
2023-11-24T11:48:10.236Z,1.73
2023-11-24T11:50:37.852Z,1.50
2023-11-24T11:53:05.080Z,1.50
2023-11-24T11:55:32.040Z,1.63
2023-11-24T11:58:01.597Z,2.07
2023-11-24T12:00:30.268Z,1.97
2023-11-24T12:02:58.447Z,2.13
2023-11-24T12:05:27.719Z,1.37
2023-11-24T12:07:54.803Z,2.20
2023-11-24T12:10:22.238Z,1.47
2023-11-24T12:12:49.936Z,2.50
2023-11-24T12:15:18.652Z,1.97
2023-11-24T12:17:46.045Z,2.77
2023-11-24T12:20:15.912Z,1.33
2023-11-24T12:22:45.054Z,1.90
2023-11-24T12:25:14.057Z,1.57
2023-11-24T12:27:44.771Z,1.47
2023-11-24T12:30:16.286Z,1.80
2023-11-24T12:32:44.049Z,1.70
2023-11-24T12:35:12.266Z,1.97
2023-11-24T12:37:45.263Z,1.30
2023-11-24T12:40:12.930Z,1.40
2023-11-24T12:42:41.858Z,1.50
2023-11-24T12:45:09.812Z,1.77
2023-11-24T12:50:12.495Z,2.23
2023-11-24T12:52:46.181Z,1.70
2023-11-24T12:55:13.532Z,1.50
2023-11-24T12:57:45.319Z,1.20
2023-11-24T13:00:17.702Z,1.63
2023-11-24T13:02:46.799Z,1.70
2023-11-24T13:05:14.735Z,2.00
2023-11-24T13:07:42.339Z,1.30
2023-11-24T13:10:13.500Z,1.40
2023-11-24T13:12:41.102Z,1.70
2023-11-24T13:15:09.247Z,1.50
2023-11-24T13:17:36.620Z,1.80
2023-11-24T13:20:07.296Z,1.37
2023-11-24T13:22:35.162Z,1.20
2023-11-24T13:25:02.754Z,1.30
2023-11-24T13:27:30.200Z,0.80
2023-11-24T13:29:57.921Z,1.33
2023-11-24T13:32:24.793Z,1.30
2023-11-24T13:34:51.747Z,1.10
2023-11-24T13:37:19.538Z,0.90
2023-11-24T13:39:49.250Z,1.10
2023-11-24T13:42:17.849Z,1.23
2023-11-24T13:44:46.019Z,1.17
2023-11-24T13:47:14.359Z,0.90
2023-11-24T13:49:41.788Z,1.47
2023-11-24T13:52:08.886Z,1.00
2023-11-24T13:54:36.616Z,1.00
2023-11-24T13:57:04.346Z,1.70
2023-11-24T13:59:32.281Z,1.17
2023-11-24T14:01:59.978Z,1.20
2023-11-24T14:04:27.558Z,1.50
2023-11-24T14:06:55.398Z,1.20
2023-11-24T14:09:30.469Z,1.27
2023-11-24T14:11:57.602Z,1.07
2023-11-24T14:14:24.817Z,1.20
2023-11-24T14:16:52.106Z,1.10
2023-11-24T14:19:18.982Z,1.17
2023-11-24T14:21:46.085Z,1.07
2023-11-24T14:24:13.299Z,1.20
2023-11-24T14:26:45.345Z,1.40
2023-11-24T14:29:13.423Z,0.97
2023-11-24T14:31:41.012Z,0.73
2023-11-24T14:34:08.069Z,1.30
2023-11-24T14:36:38.072Z,1.33
2023-11-24T14:39:06.080Z,0.83
2023-11-24T14:41:33.919Z,0.60
2023-11-24T14:44:00.970Z,0.90
2023-11-24T14:46:29.993Z,1.23
2023-11-24T14:48:57.608Z,0.70
2023-11-24T14:51:25.149Z,1.70
2023-11-24T14:53:52.012Z,0.70
2023-11-24T14:56:19.529Z,0.80
2023-11-24T14:58:47.158Z,0.90
2023-11-24T15:01:20.968Z,1.17
2023-11-24T15:03:49.685Z,0.90
2023-11-24T15:06:16.911Z,1.33
2023-11-24T15:08:47.699Z,0.87
2023-11-24T15:11:16.646Z,1.20
2023-11-24T15:13:44.528Z,0.93
2023-11-24T15:16:20.479Z,0.80
2023-11-24T15:18:50.851Z,1.00
2023-11-24T15:21:32.426Z,1.47
2023-11-24T15:24:03.462Z,1.17
2023-11-24T15:26:31.299Z,0.87
2023-11-24T15:28:58.059Z,1.03
2023-11-24T15:31:28.023Z,0.60
2023-11-24T15:33:55.292Z,1.20
2023-11-24T15:36:28.761Z,0.83
2023-11-24T15:38:59.906Z,1.30
2023-11-24T15:41:39.190Z,1.10
2023-11-24T15:44:08.190Z,1.43
2023-11-24T15:46:39.520Z,0.80
2023-11-24T15:49:16.050Z,1.07
2023-11-24T15:51:46.891Z,0.73
2023-11-24T15:54:16.390Z,1.20
2023-11-24T15:56:44.673Z,1.30
2023-11-24T15:59:24.689Z,0.93
2023-11-24T16:01:55.454Z,1.40
2023-11-24T16:04:22.911Z,1.20
2023-11-24T16:06:56.543Z,1.03
2023-11-24T16:09:26.654Z,0.87
2023-11-24T16:12:08.954Z,1.23
2023-11-24T16:14:38.675Z,1.10
2023-11-24T16:17:06.913Z,1.03
2023-11-24T16:19:34.790Z,1.33
2023-11-24T16:22:02.549Z,1.47
2023-11-24T16:24:29.436Z,1.00
2023-11-24T16:26:56.432Z,0.70
2023-11-24T16:29:23.715Z,1.00
2023-11-24T16:31:52.485Z,0.83
2023-11-24T16:34:24.095Z,0.67
2023-11-24T16:36:51.489Z,1.07
2023-11-24T16:39:18.589Z,1.00
2023-11-24T16:41:47.125Z,0.77
2023-11-24T16:44:13.908Z,0.87
2023-11-24T16:46:41.856Z,1.33
2023-11-24T16:49:09.799Z,0.90
2023-11-24T16:51:37.318Z,1.67
2023-11-24T16:54:04.367Z,1.10
2023-11-24T16:56:31.172Z,0.60
2023-11-24T16:58:58.358Z,1.10
2023-11-24T17:01:25.892Z,0.80
2023-11-24T17:03:54.412Z,0.50
2023-11-24T17:06:21.409Z,0.70
2023-11-24T17:08:48.200Z,0.90
2023-11-24T17:11:15.496Z,1.00
2023-11-24T17:13:42.444Z,1.10
2023-11-24T17:16:09.552Z,1.20
2023-11-24T17:18:38.596Z,0.70
2023-11-24T17:21:05.992Z,0.93
2023-11-24T17:23:34.099Z,0.70
2023-11-24T17:26:00.918Z,1.03
2023-11-24T17:28:27.708Z,1.20
2023-11-24T17:30:54.507Z,1.00
2023-11-24T17:33:21.280Z,0.90
2023-11-24T17:35:48.859Z,0.80
2023-11-24T17:38:19.503Z,0.77
2023-11-24T17:40:48.520Z,1.40
2023-11-24T17:43:15.340Z,1.10
2023-11-24T17:45:42.126Z,1.37
2023-11-24T17:48:10.207Z,1.00
2023-11-24T17:50:38.354Z,1.23
2023-11-24T17:53:05.167Z,1.03
2023-11-24T17:55:32.328Z,1.33
2023-11-24T17:57:59.297Z,1.20
2023-11-24T18:00:29.953Z,0.80
2023-11-24T18:02:59.946Z,0.97
2023-11-24T18:05:27.283Z,1.27
2023-11-24T18:07:54.461Z,1.27
2023-11-24T18:10:21.361Z,1.13
2023-11-24T18:12:50.658Z,0.77
2023-11-24T18:15:17.855Z,1.10
2023-11-24T18:17:44.821Z,1.00
2023-11-24T18:20:15.465Z,1.10
2023-11-24T18:22:42.525Z,1.13
2023-11-24T18:25:09.639Z,1.00
2023-11-24T18:27:38.996Z,0.90
2023-11-24T18:30:07.813Z,0.90
2023-11-24T18:32:34.687Z,1.13
2023-11-24T18:35:01.511Z,0.73
2023-11-24T18:37:28.365Z,0.77
2023-11-24T18:39:55.171Z,0.87
2023-11-24T18:42:21.912Z,0.60
2023-11-24T18:44:49.121Z,0.97
2023-11-24T18:47:20.112Z,0.63
2023-11-24T18:49:47.144Z,1.60
2023-11-24T18:52:14.257Z,1.00
2023-11-24T18:54:44.009Z,0.97
2023-11-24T18:57:11.796Z,0.83
2023-11-24T18:59:38.609Z,0.87
2023-11-24T19:02:05.671Z,0.90
2023-11-24T19:04:32.991Z,0.93
2023-11-24T19:07:00.133Z,1.03
2023-11-24T19:09:26.983Z,0.70
2023-11-24T19:11:53.737Z,1.10
2023-11-24T19:14:20.488Z,0.80
2023-11-24T19:16:47.444Z,0.50
2023-11-24T19:19:14.699Z,0.90
2023-11-24T19:21:41.866Z,0.70
2023-11-24T19:24:09.097Z,0.70
2023-11-24T19:26:39.333Z,0.90
2023-11-24T19:29:11.452Z,1.10
2023-11-24T19:31:39.771Z,0.77
2023-11-24T19:34:09.128Z,0.80
2023-11-24T19:36:36.859Z,0.97
2023-11-24T19:39:05.167Z,0.80
2023-11-24T19:41:31.922Z,0.80
2023-11-24T19:43:58.702Z,1.20
2023-11-24T19:46:25.655Z,1.00
2023-11-24T19:48:52.732Z,1.00
2023-11-24T19:51:19.789Z,1.00
2023-11-24T19:53:50.079Z,0.90
2023-11-24T19:56:18.574Z,0.83
2023-11-24T19:58:45.418Z,0.97
2023-11-24T20:01:12.521Z,1.43
2023-11-24T20:03:40.049Z,1.00
2023-11-24T20:06:07.627Z,0.93
2023-11-24T20:08:34.943Z,0.70
2023-11-24T20:11:01.971Z,0.97
2023-11-24T20:13:29.574Z,0.90
2023-11-24T20:15:58.107Z,1.23
2023-11-24T20:18:25.043Z,1.10
2023-11-24T20:20:52.764Z,1.70
2023-11-24T20:23:20.419Z,1.10
2023-11-24T20:25:47.457Z,1.20
2023-11-24T20:28:14.493Z,1.30
2023-11-24T20:30:41.475Z,1.10
2023-11-24T20:33:08.356Z,0.70
2023-11-24T20:35:35.249Z,1.00
2023-11-24T20:38:04.763Z,1.27
2023-11-24T20:40:31.584Z,0.70
2023-11-24T20:42:58.445Z,1.37
2023-11-24T20:45:25.274Z,0.80
2023-11-24T20:47:52.992Z,0.70
2023-11-24T20:50:20.076Z,0.80
2023-11-24T20:52:47.042Z,1.20
2023-11-24T20:55:14.616Z,0.80
2023-11-24T20:57:41.609Z,1.37
2023-11-24T21:00:12.681Z,0.93
2023-11-24T21:02:40.697Z,1.00
2023-11-24T21:05:09.581Z,1.00
2023-11-24T21:07:37.040Z,0.70
2023-11-24T21:10:05.374Z,1.20
2023-11-24T21:12:32.923Z,0.93
2023-11-24T21:15:03.233Z,0.90
2023-11-24T21:17:30.602Z,0.90
2023-11-24T21:19:57.431Z,1.13
2023-11-24T21:22:24.247Z,1.00
2023-11-24T21:24:52.775Z,1.23
2023-11-24T21:27:21.888Z,1.20
2023-11-24T21:29:48.820Z,0.90
2023-11-24T21:32:15.570Z,1.30
2023-11-24T21:34:43.114Z,1.10
2023-11-24T21:37:10.218Z,2.00
2023-11-24T21:39:37.541Z,1.80
2023-11-24T21:42:04.605Z,2.50
2023-11-24T21:44:31.351Z,1.43
2023-11-24T21:46:58.396Z,2.33
2023-11-24T21:49:25.274Z,3.10
2023-11-24T21:51:52.109Z,1.83
2023-11-24T21:54:20.049Z,2.20
2023-11-24T21:56:46.836Z,1.70
2023-11-24T21:59:13.579Z,2.40
2023-11-24T22:01:40.642Z,2.77
2023-11-24T22:04:07.702Z,2.87
2023-11-24T22:06:36.755Z,2.77
2023-11-24T22:09:06.509Z,2.83
2023-11-24T22:11:33.734Z,2.27
2023-11-24T22:14:00.901Z,2.67
2023-11-24T22:16:27.807Z,2.80
2023-11-24T22:18:54.712Z,2.00
2023-11-24T22:21:22.302Z,2.20
2023-11-24T22:23:49.910Z,1.90
2023-11-24T22:26:21.085Z,1.90
2023-11-24T22:28:49.828Z,1.63
2023-11-24T22:31:17.211Z,1.90
2023-11-24T22:33:44.374Z,1.70
2023-11-24T22:36:19.658Z,1.63
2023-11-24T22:38:47.278Z,2.07
2023-11-24T22:41:21.416Z,2.00
2023-11-24T22:43:52.382Z,1.87
2023-11-24T22:46:29.279Z,1.90
2023-11-24T22:48:56.223Z,2.40
2023-11-24T22:51:24.790Z,2.20
2023-11-24T22:53:51.922Z,1.80
2023-11-24T22:56:26.472Z,1.53
2023-11-24T22:58:59.631Z,1.90
2023-11-24T23:01:27.360Z,1.57
2023-11-24T23:03:55.804Z,1.50
2023-11-24T23:06:24.524Z,1.47
2023-11-24T23:08:52.658Z,1.43
2023-11-24T23:11:20.729Z,1.90
2023-11-24T23:13:49.841Z,1.37
2023-11-24T23:16:21.382Z,2.10
2023-11-24T23:18:48.683Z,1.80
2023-11-24T23:21:18.916Z,1.97
2023-11-24T23:23:47.865Z,1.37
2023-11-24T23:26:14.663Z,1.27
2023-11-24T23:28:42.347Z,1.30
2023-11-24T23:31:15.037Z,1.53
2023-11-24T23:33:43.275Z,1.83
2023-11-24T23:36:14.347Z,1.20
2023-11-24T23:38:42.029Z,1.00
2023-11-24T23:41:08.868Z,1.50
2023-11-24T23:43:49.664Z,1.27
2023-11-24T23:46:17.364Z,1.67
2023-11-24T23:48:44.387Z,1.13
2023-11-24T23:51:11.246Z,2.73
2023-11-24T23:53:38.271Z,1.47
2023-11-24T23:56:06.656Z,1.67
2023-11-24T23:58:35.687Z,2.87
